createdAt,value
2023-04-23T00:00:31.382Z,95.90
2023-04-23T00:03:00.215Z,96.50
2023-04-23T00:05:27.878Z,97.50
2023-04-23T00:07:54.816Z,98.60
2023-04-23T00:10:21.864Z,99.30
2023-04-23T00:12:50.197Z,99.90
2023-04-23T00:15:17.779Z,99.90
2023-04-23T00:17:44.549Z,99.90
2023-04-23T00:20:12.533Z,99.90
2023-04-23T00:22:42.787Z,99.90
2023-04-23T00:25:10.372Z,99.90
2023-04-23T00:27:37.219Z,99.90
2023-04-23T00:30:07.225Z,99.90
2023-04-23T00:32:34.042Z,99.90
2023-04-23T00:35:01.119Z,99.90
2023-04-23T00:37:28.401Z,99.90
2023-04-23T00:39:55.261Z,99.90
2023-04-23T00:42:22.080Z,99.90
2023-04-23T00:44:49.660Z,99.90
2023-04-23T00:47:16.490Z,99.90
2023-04-23T00:49:44.087Z,99.90
2023-04-23T00:52:10.848Z,99.90
2023-04-23T00:54:37.680Z,99.90
2023-04-23T00:57:04.965Z,99.90
2023-04-23T00:59:31.957Z,99.90
2023-04-23T01:01:58.773Z,99.90
2023-04-23T01:04:26.442Z,99.90
2023-04-23T01:06:53.649Z,99.90
2023-04-23T01:09:20.532Z,99.90
2023-04-23T01:11:47.340Z,99.90
2023-04-23T01:14:14.083Z,99.90
2023-04-23T01:16:41.197Z,99.90
2023-04-23T01:19:08.929Z,99.90
2023-04-23T01:21:36.792Z,99.90
2023-04-23T01:24:04.406Z,99.90
2023-04-23T01:26:32.070Z,99.90
2023-04-23T01:29:01.153Z,99.90
2023-04-23T01:31:29.436Z,99.90
2023-04-23T01:33:56.311Z,99.90
2023-04-23T01:36:23.854Z,99.90
2023-04-23T01:38:51.866Z,99.90
2023-04-23T01:41:18.641Z,99.90
2023-04-23T01:43:45.524Z,99.90
2023-04-23T01:46:13.425Z,99.90
2023-04-23T01:48:40.193Z,99.90
2023-04-23T01:51:06.965Z,99.90
2023-04-23T01:53:34.164Z,99.90
2023-04-23T01:56:01.487Z,99.90
2023-04-23T01:58:29.702Z,99.90
2023-04-23T02:00:57.756Z,99.90
2023-04-23T02:03:24.716Z,99.90
2023-04-23T02:05:52.871Z,99.90
2023-04-23T02:08:19.792Z,99.90
2023-04-23T02:10:46.517Z,99.90
2023-04-23T02:13:13.451Z,99.90
2023-04-23T02:15:40.829Z,99.90
2023-04-23T02:18:07.968Z,99.90
2023-04-23T02:23:18.945Z,99.90
2023-04-23T02:25:46.903Z,99.90
2023-04-23T02:28:13.723Z,99.90
2023-04-23T02:30:49.299Z,99.90
2023-04-23T02:33:19.769Z,99.90
2023-04-23T02:35:48.064Z,99.90
2023-04-23T02:38:15.282Z,99.90
2023-04-23T02:40:42.572Z,99.90
2023-04-23T02:43:09.699Z,99.90
2023-04-23T02:45:38.551Z,99.90
2023-04-23T02:48:05.411Z,99.90
2023-04-23T02:50:32.135Z,99.90
2023-04-23T02:52:58.929Z,99.90
2023-04-23T02:55:25.746Z,99.90
2023-04-23T02:57:52.666Z,99.90
2023-04-23T03:00:20.256Z,99.90
2023-04-23T03:02:47.410Z,99.90
2023-04-23T03:05:14.410Z,99.90
2023-04-23T03:07:41.480Z,99.90
2023-04-23T03:10:08.837Z,99.90
2023-04-23T03:12:38.651Z,99.90
2023-04-23T03:15:09.995Z,99.90
2023-04-23T03:17:38.400Z,99.90
2023-04-23T03:20:06.027Z,99.90
2023-04-23T03:22:33.124Z,99.90
2023-04-23T03:25:03.987Z,99.90
2023-04-23T03:27:32.498Z,99.90
2023-04-23T03:29:59.465Z,99.90
2023-04-23T03:32:26.318Z,99.90
2023-04-23T03:34:53.142Z,99.90
2023-04-23T03:37:22.591Z,99.90
2023-04-23T03:39:51.650Z,99.90
2023-04-23T03:42:18.638Z,99.90
2023-04-23T03:44:45.719Z,99.90
2023-04-23T03:47:12.578Z,99.90
2023-04-23T03:49:45.764Z,99.90
2023-04-23T03:52:13.693Z,99.90
2023-04-23T03:54:41.591Z,99.90
2023-04-23T03:57:09.427Z,99.90
2023-04-23T03:59:36.286Z,99.90
2023-04-23T04:02:07.063Z,99.90
2023-04-23T04:04:34.565Z,99.90
2023-04-23T04:07:02.053Z,99.90
2023-04-23T04:09:36.413Z,99.90
2023-04-23T04:12:04.403Z,99.90
2023-04-23T04:14:31.856Z,99.90
2023-04-23T04:16:58.862Z,99.90
2023-04-23T04:19:27.173Z,99.90
2023-04-23T04:21:55.095Z,99.90
2023-04-23T04:24:24.955Z,99.90
2023-04-23T04:26:54.371Z,99.90
2023-04-23T04:29:24.517Z,99.90
2023-04-23T04:31:56.808Z,99.90
2023-04-23T04:34:23.653Z,99.90
2023-04-23T04:36:54.044Z,99.90
2023-04-23T04:39:21.403Z,99.90
2023-04-23T04:41:48.835Z,99.90
2023-04-23T04:44:16.591Z,99.90
2023-04-23T04:46:44.483Z,99.90
2023-04-23T04:49:12.655Z,99.90
2023-04-23T04:51:43.088Z,99.90
2023-04-23T04:54:10.051Z,99.90
2023-04-23T04:56:39.502Z,99.90
2023-04-23T04:59:06.863Z,99.90
2023-04-23T05:01:34.693Z,99.90
2023-04-23T05:04:01.902Z,99.90
2023-04-23T05:06:29.403Z,99.90
2023-04-23T05:08:59.467Z,99.90
2023-04-23T05:11:27.787Z,99.90
2023-04-23T05:14:02.747Z,99.90
2023-04-23T05:16:30.670Z,99.90
2023-04-23T05:18:57.568Z,99.90
2023-04-23T05:21:27.639Z,99.90
2023-04-23T05:23:56.151Z,99.90
2023-04-23T05:26:23.032Z,99.90
2023-04-23T05:28:50.341Z,99.90
2023-04-23T05:31:17.246Z,99.30
2023-04-23T05:33:49.840Z,98.30
2023-04-23T05:36:17.694Z,97.00
2023-04-23T05:38:44.587Z,95.80
2023-04-23T05:41:11.594Z,94.00
2023-04-23T05:43:38.848Z,92.70
2023-04-23T05:46:07.812Z,90.70
2023-04-23T05:48:36.447Z,86.70
2023-04-23T05:51:03.296Z,86.20
2023-04-23T05:53:31.757Z,85.70
2023-04-23T05:55:58.948Z,84.80
2023-04-23T05:58:26.555Z,82.70
2023-04-23T06:00:53.981Z,81.40
2023-04-23T06:03:21.111Z,80.60
2023-04-23T06:05:48.675Z,76.20
2023-04-23T06:08:15.754Z,76.80
2023-04-23T06:10:43.092Z,72.30
2023-04-23T06:13:11.466Z,71.50
2023-04-23T06:15:38.914Z,67.60
2023-04-23T06:18:09.219Z,68.20
2023-04-23T06:20:35.997Z,67.30
2023-04-23T06:23:04.169Z,67.70
2023-04-23T06:25:31.007Z,67.60
2023-04-23T06:27:59.853Z,66.80
2023-04-23T06:30:26.590Z,65.30
2023-04-23T06:32:54.232Z,64.40
2023-04-23T06:35:24.026Z,63.80
2023-04-23T06:37:51.276Z,62.20
2023-04-23T06:40:18.137Z,59.90
2023-04-23T06:42:45.634Z,59.50
2023-04-23T06:45:12.583Z,58.90
2023-04-23T06:47:39.712Z,59.10
2023-04-23T06:50:10.598Z,57.80
2023-04-23T06:55:14.782Z,56.00
2023-04-23T07:13:27.931Z,55.30
2023-04-23T07:15:55.787Z,53.40
2023-04-23T07:18:22.950Z,53.50
2023-04-23T07:20:49.816Z,53.00
2023-04-23T07:23:16.636Z,52.50
2023-04-23T07:25:45.894Z,50.20
2023-04-23T07:28:14.333Z,50.70
2023-04-23T07:30:41.131Z,50.70
2023-04-23T07:33:08.504Z,50.20
2023-04-23T07:35:35.748Z,48.90
2023-04-23T07:38:04.207Z,47.90
2023-04-23T07:40:31.526Z,47.60
2023-04-23T07:43:00.405Z,47.50
2023-04-23T07:45:29.154Z,48.30
2023-04-23T07:47:56.941Z,48.40
2023-04-23T07:50:23.887Z,48.80
2023-04-23T07:52:52.369Z,47.50
2023-04-23T07:55:20.550Z,46.70
2023-04-23T07:57:48.132Z,46.60
2023-04-23T08:00:15.088Z,46.60
2023-04-23T08:02:45.497Z,47.10
2023-04-23T08:05:13.945Z,47.40
2023-04-23T08:07:43.733Z,47.40
2023-04-23T08:10:14.669Z,48.20
2023-04-23T08:12:43.132Z,48.40
2023-04-23T08:15:11.097Z,49.00
2023-04-23T08:17:40.628Z,49.80
2023-04-23T08:20:08.124Z,50.70
2023-04-23T08:22:35.788Z,50.90
2023-04-23T08:25:02.883Z,51.00
2023-04-23T08:27:32.698Z,51.20
2023-04-23T08:30:00.768Z,51.60
2023-04-23T08:32:29.273Z,52.10
2023-04-23T08:34:56.240Z,52.30
2023-04-23T08:37:30.925Z,52.90
2023-04-23T08:40:01.194Z,53.30
2023-04-23T08:43:01.532Z,53.50
2023-04-23T08:45:30.039Z,53.90
2023-04-23T08:48:02.997Z,53.40
2023-04-23T08:50:31.287Z,53.00
2023-04-23T08:53:00.392Z,53.60
2023-04-23T08:55:27.270Z,53.00
2023-04-23T08:57:54.069Z,53.10
2023-04-23T09:00:23.832Z,53.00
2023-04-23T09:02:50.938Z,52.30
2023-04-23T09:05:18.084Z,52.00
2023-04-23T09:07:45.352Z,51.70
2023-04-23T09:10:13.402Z,51.20
2023-04-23T09:12:42.266Z,50.90
2023-04-23T09:15:12.885Z,51.00
2023-04-23T09:17:41.189Z,51.20
2023-04-23T09:20:09.789Z,51.10
2023-04-23T09:22:49.729Z,50.70
2023-04-23T09:25:18.215Z,50.30
2023-04-23T09:27:46.994Z,50.80
2023-04-23T09:30:14.169Z,51.10
2023-04-23T09:32:42.506Z,51.40
2023-04-23T09:35:10.679Z,51.50
2023-04-23T09:37:38.647Z,51.60
2023-04-23T09:40:08.728Z,52.00
2023-04-23T09:42:36.220Z,52.00
2023-04-23T09:45:07.523Z,51.70
2023-04-23T09:47:41.913Z,51.70
2023-04-23T09:50:11.120Z,51.70
2023-04-23T09:52:41.427Z,52.00
2023-04-23T09:55:08.703Z,52.10
2023-04-23T09:57:41.976Z,52.00
2023-04-23T10:00:20.022Z,52.50
2023-04-23T10:02:49.905Z,52.40
2023-04-23T10:05:24.378Z,52.30
2023-04-23T10:07:52.777Z,52.30
2023-04-23T10:10:20.515Z,52.10
2023-04-23T10:12:55.026Z,51.70
2023-04-23T10:15:25.614Z,51.30
2023-04-23T10:17:53.480Z,51.80
2023-04-23T10:20:22.344Z,51.80
2023-04-23T10:22:49.278Z,51.60
2023-04-23T10:25:16.214Z,51.40
2023-04-23T10:27:52.181Z,51.70
2023-04-23T10:30:22.729Z,51.50
2023-04-23T10:32:50.678Z,51.40
2023-04-23T10:35:18.030Z,51.40
2023-04-23T10:37:46.598Z,50.80
2023-04-23T10:40:14.900Z,50.40
2023-04-23T10:42:42.930Z,50.60
2023-04-23T10:45:23.945Z,50.80
2023-04-23T10:47:53.323Z,51.10
2023-04-23T10:50:30.237Z,51.20
2023-04-23T10:52:58.100Z,51.00
2023-04-23T10:55:28.004Z,50.60
2023-04-23T10:58:05.426Z,50.80
2023-04-23T11:00:46.216Z,50.40
2023-04-23T11:03:39.720Z,50.40
2023-04-23T11:06:09.607Z,49.90
2023-04-23T11:08:36.369Z,49.60
2023-04-23T11:11:07.240Z,49.50
2023-04-23T11:13:34.508Z,49.40
2023-04-23T11:16:18.708Z,48.90
2023-04-23T11:19:16.660Z,49.20
2023-04-23T11:22:08.373Z,49.00
2023-04-23T11:24:44.801Z,48.70
2023-04-23T11:27:13.744Z,48.80
2023-04-23T11:29:45.279Z,48.60
2023-04-23T11:32:14.400Z,48.50
2023-04-23T11:34:43.543Z,47.50
2023-04-23T11:37:11.420Z,47.40
2023-04-23T11:39:39.139Z,47.90
2023-04-23T11:42:20.947Z,48.10
2023-04-23T11:44:47.991Z,48.30
2023-04-23T11:47:16.361Z,48.70
2023-04-23T11:49:56.291Z,48.60
2023-04-23T11:52:24.604Z,48.70
2023-04-23T11:54:53.559Z,48.40
2023-04-23T11:57:23.999Z,48.60
2023-04-23T11:59:54.741Z,49.10
2023-04-23T12:02:25.858Z,49.60
2023-04-23T12:04:54.943Z,49.70
2023-04-23T12:07:33.749Z,49.80
2023-04-23T12:10:00.685Z,50.00
2023-04-23T12:12:35.258Z,49.90
2023-04-23T12:15:09.078Z,49.40
2023-04-23T12:17:36.159Z,49.30
2023-04-23T12:20:10.126Z,49.70
2023-04-23T12:22:37.149Z,49.60
2023-04-23T12:25:08.293Z,49.10
2023-04-23T12:27:44.836Z,49.40
2023-04-23T13:56:32.146Z,47.10
2023-04-23T13:59:19.392Z,47.00
2023-04-23T16:52:35.765Z,52.20
2023-04-23T16:55:02.594Z,52.30
2023-04-23T18:06:36.137Z,60.80
2023-04-23T21:25:10.243Z,76.80
2023-04-23T21:27:37.513Z,77.30
2023-04-23T21:30:06.146Z,77.40
2023-04-23T21:32:33.163Z,77.80
2023-04-23T21:35:07.826Z,77.80
2023-04-23T21:37:47.193Z,77.90
2023-04-23T21:40:14.156Z,78.00
2023-04-23T21:42:48.717Z,78.20
2023-04-23T21:45:18.826Z,78.40
2023-04-23T21:47:47.733Z,78.40
2023-04-23T21:50:18.487Z,79.00
2023-04-23T21:52:52.610Z,78.60
2023-04-23T21:55:24.474Z,78.30
2023-04-23T21:57:51.720Z,78.20
2023-04-23T22:00:23.436Z,78.10
2023-04-23T22:03:05.627Z,78.10
2023-04-23T22:05:33.415Z,78.30
2023-04-23T22:08:00.444Z,78.50
2023-04-23T22:10:27.654Z,78.60
2023-04-23T22:12:55.118Z,79.10
2023-04-23T22:15:23.965Z,79.40
2023-04-23T22:17:52.395Z,79.80
2023-04-23T22:20:20.081Z,80.10
2023-04-23T22:22:49.722Z,80.40
2023-04-23T22:25:17.581Z,81.20
2023-04-23T22:27:44.841Z,81.90
2023-04-23T22:30:17.761Z,82.00
2023-04-23T22:32:46.558Z,82.50
2023-04-23T22:35:13.408Z,83.40
2023-04-23T22:37:43.962Z,83.90
2023-04-23T22:40:13.289Z,84.50
2023-04-23T22:42:41.006Z,85.20
2023-04-23T22:45:08.411Z,86.20
2023-04-23T22:47:39.027Z,87.20
2023-04-23T22:50:06.408Z,88.60
2023-04-23T22:52:34.470Z,89.70
2023-04-23T22:55:01.981Z,90.60
2023-04-23T22:57:30.946Z,91.40
2023-04-23T22:59:57.692Z,92.80
2023-04-23T23:02:24.553Z,93.60
2023-04-23T23:04:51.414Z,94.50
2023-04-23T23:07:18.542Z,95.40
2023-04-23T23:09:45.843Z,96.50
2023-04-23T23:12:13.063Z,97.60
2023-04-23T23:14:42.507Z,98.70
2023-04-23T23:17:09.237Z,99.70
2023-04-23T23:19:36.524Z,99.90
2023-04-23T23:22:04.013Z,99.90
2023-04-23T23:24:30.847Z,99.90
2023-04-23T23:27:00.144Z,99.90
2023-04-23T23:29:28.281Z,99.90
2023-04-23T23:31:57.220Z,99.90
2023-04-23T23:34:25.151Z,99.90
2023-04-23T23:36:52.773Z,99.90
2023-04-23T23:39:21.019Z,99.90
2023-04-23T23:41:49.127Z,99.90
2023-04-23T23:44:16.832Z,99.90
2023-04-23T23:46:45.393Z,99.90
2023-04-23T23:49:12.409Z,99.90
2023-04-23T23:51:40.341Z,99.90
2023-04-23T23:54:09.291Z,99.90
2023-04-23T23:56:38.667Z,99.90
2023-04-23T23:59:05.619Z,99.90
